sensor_id;sensor_type;location;lat;lon;timestamp;noise_LAeq;noise_LA_min;noise_LA_max;noise_LA01;noise_LA95
17594;Laerm;8916;47.086;15.920;2023-10-31T00:01:40;49.01;47.91;50.15;;
17594;Laerm;8916;47.086;15.920;2023-10-31T00:04:09;49.01;47.84;50.16;;
17594;Laerm;8916;47.086;15.920;2023-10-31T00:06:39;49.01;47.77;50.10;;
17594;Laerm;8916;47.086;15.920;2023-10-31T00:09:09;49.01;47.88;50.26;;
17594;Laerm;8916;47.086;15.920;2023-10-31T00:11:41;49.00;47.93;50.14;;
17594;Laerm;8916;47.086;15.920;2023-10-31T00:14:10;49.01;47.90;50.08;;
17594;Laerm;8916;47.086;15.920;2023-10-31T00:16:58;49.01;47.90;50.19;;
17594;Laerm;8916;47.086;15.920;2023-10-31T00:19:27;49.01;47.76;50.20;;
17594;Laerm;8916;47.086;15.920;2023-10-31T00:21:58;49.00;47.91;50.17;;
17594;Laerm;8916;47.086;15.920;2023-10-31T00:24:31;48.99;47.81;50.17;;
17594;Laerm;8916;47.086;15.920;2023-10-31T00:27:00;48.99;47.90;50.12;;
17594;Laerm;8916;47.086;15.920;2023-10-31T00:29:29;49.00;47.93;50.34;;
17594;Laerm;8916;47.086;15.920;2023-10-31T00:32:01;49.01;47.96;50.38;;
17594;Laerm;8916;47.086;15.920;2023-10-31T00:34:34;49.00;47.81;50.47;;
17594;Laerm;8916;47.086;15.920;2023-10-31T00:37:04;49.00;47.88;50.36;;
17594;Laerm;8916;47.086;15.920;2023-10-31T00:39:33;49.00;47.91;50.10;;
17594;Laerm;8916;47.086;15.920;2023-10-31T00:42:03;49.00;47.79;50.13;;
17594;Laerm;8916;47.086;15.920;2023-10-31T00:44:32;49.00;47.90;50.28;;
17594;Laerm;8916;47.086;15.920;2023-10-31T00:47:01;49.00;48.00;50.18;;
17594;Laerm;8916;47.086;15.920;2023-10-31T00:49:33;49.00;48.00;50.32;;
17594;Laerm;8916;47.086;15.920;2023-10-31T00:52:04;48.99;47.81;50.23;;
17594;Laerm;8916;47.086;15.920;2023-10-31T00:54:34;48.98;47.88;50.23;;
17594;Laerm;8916;47.086;15.920;2023-10-31T00:57:03;48.98;47.98;50.23;;
17594;Laerm;8916;47.086;15.920;2023-10-31T00:59:32;48.96;47.95;50.26;;
17594;Laerm;8916;47.086;15.920;2023-10-31T01:02:01;48.97;47.81;50.10;;
17594;Laerm;8916;47.086;15.920;2023-10-31T01:04:31;48.98;47.81;50.08;;
17594;Laerm;8916;47.086;15.920;2023-10-31T01:07:00;48.97;47.88;50.17;;
17594;Laerm;8916;47.086;15.920;2023-10-31T01:09:30;48.97;47.95;49.98;;
17594;Laerm;8916;47.086;15.920;2023-10-31T01:11:59;48.98;47.70;50.58;;
17594;Laerm;8916;47.086;15.920;2023-10-31T01:14:29;48.96;47.84;50.28;;
17594;Laerm;8916;47.086;15.920;2023-10-31T01:16:58;48.96;47.91;50.13;;
17594;Laerm;8916;47.086;15.920;2023-10-31T01:19:27;48.95;47.88;50.36;;
17594;Laerm;8916;47.086;15.920;2023-10-31T01:21:56;48.95;47.57;50.03;;
17594;Laerm;8916;47.086;15.920;2023-10-31T01:24:25;48.95;47.90;50.17;;
17594;Laerm;8916;47.086;15.920;2023-10-31T01:26:56;48.96;47.72;50.18;;
17594;Laerm;8916;47.086;15.920;2023-10-31T01:29:25;48.96;47.84;50.05;;
17594;Laerm;8916;47.086;15.920;2023-10-31T01:31:54;48.97;47.70;50.00;;
17594;Laerm;8916;47.086;15.920;2023-10-31T01:34:30;48.96;47.90;50.17;;
17594;Laerm;8916;47.086;15.920;2023-10-31T01:36:59;48.97;47.81;50.12;;
17594;Laerm;8916;47.086;15.920;2023-10-31T01:39:28;48.96;47.74;50.11;;
17594;Laerm;8916;47.086;15.920;2023-10-31T01:41:59;48.94;47.91;50.06;;
17594;Laerm;8916;47.086;15.920;2023-10-31T01:44:28;48.95;47.68;50.36;;
17594;Laerm;8916;47.086;15.920;2023-10-31T01:46:58;48.96;47.72;50.10;;
17594;Laerm;8916;47.086;15.920;2023-10-31T01:49:27;48.96;47.95;50.21;;
17594;Laerm;8916;47.086;15.920;2023-10-31T01:51:56;48.96;47.84;50.23;;
17594;Laerm;8916;47.086;15.920;2023-10-31T01:54:25;48.96;47.88;50.14;;
17594;Laerm;8916;47.086;15.920;2023-10-31T01:56:55;48.95;47.88;50.11;;
17594;Laerm;8916;47.086;15.920;2023-10-31T01:59:27;48.96;47.63;50.13;;
17594;Laerm;8916;47.086;15.920;2023-10-31T02:01:57;48.95;47.67;50.15;;
17594;Laerm;8916;47.086;15.920;2023-10-31T02:04:27;48.96;47.83;50.29;;
17594;Laerm;8916;47.086;15.920;2023-10-31T02:06:57;48.95;47.84;49.98;;
17594;Laerm;8916;47.086;15.920;2023-10-31T02:09:26;48.96;47.77;50.22;;
17594;Laerm;8916;47.086;15.920;2023-10-31T02:11:57;48.97;47.88;50.06;;
17594;Laerm;8916;47.086;15.920;2023-10-31T02:14:28;48.96;47.90;50.07;;
17594;Laerm;8916;47.086;15.920;2023-10-31T02:16:57;48.95;47.91;50.16;;
17594;Laerm;8916;47.086;15.920;2023-10-31T02:19:26;48.95;47.74;50.28;;
17594;Laerm;8916;47.086;15.920;2023-10-31T02:21:57;48.95;47.72;50.32;;
17594;Laerm;8916;47.086;15.920;2023-10-31T02:24:29;48.95;47.67;50.11;;
17594;Laerm;8916;47.086;15.920;2023-10-31T02:26:58;48.95;47.76;50.11;;
17594;Laerm;8916;47.086;15.920;2023-10-31T02:29:27;48.96;47.79;50.33;;
17594;Laerm;8916;47.086;15.920;2023-10-31T02:31:56;48.96;47.81;50.11;;
17594;Laerm;8916;47.086;15.920;2023-10-31T02:34:26;48.95;47.87;50.16;;
17594;Laerm;8916;47.086;15.920;2023-10-31T02:36:57;48.95;47.54;50.05;;
17594;Laerm;8916;47.086;15.920;2023-10-31T02:39:26;48.94;47.77;50.07;;
17594;Laerm;8916;47.086;15.920;2023-10-31T02:41:55;48.94;47.81;50.30;;
17594;Laerm;8916;47.086;15.920;2023-10-31T02:44:25;48.93;47.88;50.05;;
17594;Laerm;8916;47.086;15.920;2023-10-31T02:46:57;48.92;47.67;50.13;;
17594;Laerm;8916;47.086;15.920;2023-10-31T02:49:27;48.91;47.76;50.00;;
17594;Laerm;8916;47.086;15.920;2023-10-31T02:51:57;48.91;47.72;49.92;;
17594;Laerm;8916;47.086;15.920;2023-10-31T02:54:26;48.90;47.93;50.15;;
17594;Laerm;8916;47.086;15.920;2023-10-31T02:56:55;48.89;47.81;50.19;;
17594;Laerm;8916;47.086;15.920;2023-10-31T02:59:25;48.89;47.79;49.96;;
17594;Laerm;8916;47.086;15.920;2023-10-31T03:01:57;48.89;47.79;50.04;;
17594;Laerm;8916;47.086;15.920;2023-10-31T03:04:26;48.89;47.85;50.15;;
17594;Laerm;8916;47.086;15.920;2023-10-31T03:06:56;48.89;47.84;50.16;;
17594;Laerm;8916;47.086;15.920;2023-10-31T03:09:26;48.88;47.77;50.03;;
17594;Laerm;8916;47.086;15.920;2023-10-31T03:11:55;48.88;47.72;49.95;;
17594;Laerm;8916;47.086;15.920;2023-10-31T03:14:24;48.89;47.74;50.00;;
17594;Laerm;8916;47.086;15.920;2023-10-31T03:16:54;48.88;47.63;50.02;;
17594;Laerm;8916;47.086;15.920;2023-10-31T03:19:23;48.88;47.70;50.18;;
17594;Laerm;8916;47.086;15.920;2023-10-31T03:21:53;48.90;47.84;50.01;;
17594;Laerm;8916;47.086;15.920;2023-10-31T03:24:23;48.89;47.86;50.09;;
17594;Laerm;8916;47.086;15.920;2023-10-31T03:26:52;48.89;47.72;50.25;;
17594;Laerm;8916;47.086;15.920;2023-10-31T03:29:22;48.89;47.84;50.07;;
17594;Laerm;8916;47.086;15.920;2023-10-31T03:31:52;48.89;47.79;50.08;;
17594;Laerm;8916;47.086;15.920;2023-10-31T03:34:21;48.89;47.44;50.03;;
17594;Laerm;8916;47.086;15.920;2023-10-31T03:36:50;48.88;47.73;50.12;;
17594;Laerm;8916;47.086;15.920;2023-10-31T03:39:19;48.87;47.65;49.93;;
17594;Laerm;8916;47.086;15.920;2023-10-31T03:41:50;48.88;47.83;50.12;;
17594;Laerm;8916;47.086;15.920;2023-10-31T03:44:19;48.86;47.57;49.93;;
17594;Laerm;8916;47.086;15.920;2023-10-31T03:46:49;48.86;47.74;50.09;;
17594;Laerm;8916;47.086;15.920;2023-10-31T03:49:18;48.86;47.84;50.17;;
17594;Laerm;8916;47.086;15.920;2023-10-31T03:51:47;48.87;47.79;50.05;;
17594;Laerm;8916;47.086;15.920;2023-10-31T03:54:17;48.85;47.70;49.91;;
17594;Laerm;8916;47.086;15.920;2023-10-31T03:56:46;48.85;47.74;50.28;;
17594;Laerm;8916;47.086;15.920;2023-10-31T03:59:18;48.85;47.63;49.89;;
17594;Laerm;8916;47.086;15.920;2023-10-31T04:01:48;48.86;47.70;49.98;;
17594;Laerm;8916;47.086;15.920;2023-10-31T04:04:17;48.85;47.76;49.90;;
17594;Laerm;8916;47.086;15.920;2023-10-31T04:06:47;48.86;47.81;50.17;;
17594;Laerm;8916;47.086;15.920;2023-10-31T04:09:16;48.86;47.84;50.07;;
17594;Laerm;8916;47.086;15.920;2023-10-31T04:11:45;48.87;47.70;50.09;;
17594;Laerm;8916;47.086;15.920;2023-10-31T04:14:14;48.88;47.83;50.11;;
17594;Laerm;8916;47.086;15.920;2023-10-31T04:16:45;48.88;47.83;50.02;;
17594;Laerm;8916;47.086;15.920;2023-10-31T04:19:14;48.90;47.78;50.07;;
17594;Laerm;8916;47.086;15.920;2023-10-31T04:21:43;48.90;47.77;50.16;;
17594;Laerm;8916;47.086;15.920;2023-10-31T04:24:12;48.90;47.81;50.18;;
17594;Laerm;8916;47.086;15.920;2023-10-31T04:26:41;48.91;47.86;50.07;;
17594;Laerm;8916;47.086;15.920;2023-10-31T04:29:11;48.91;47.72;50.17;;
17594;Laerm;8916;47.086;15.920;2023-10-31T04:31:40;48.91;47.90;50.05;;
17594;Laerm;8916;47.086;15.920;2023-10-31T04:34:12;48.90;47.79;50.30;;
17594;Laerm;8916;47.086;15.920;2023-10-31T04:36:42;48.90;47.83;50.19;;
17594;Laerm;8916;47.086;15.920;2023-10-31T04:39:11;48.88;47.72;50.01;;
17594;Laerm;8916;47.086;15.920;2023-10-31T04:41:40;48.89;47.72;50.09;;
17594;Laerm;8916;47.086;15.920;2023-10-31T04:44:09;48.89;47.75;50.06;;
17594;Laerm;8916;47.086;15.920;2023-10-31T04:46:38;48.87;47.86;50.07;;
17594;Laerm;8916;47.086;15.920;2023-10-31T04:49:09;48.87;47.83;50.09;;
17594;Laerm;8916;47.086;15.920;2023-10-31T04:51:40;48.86;47.79;50.04;;
17594;Laerm;8916;47.086;15.920;2023-10-31T04:54:09;48.87;47.77;49.98;;
17594;Laerm;8916;47.086;15.920;2023-10-31T04:56:39;48.87;47.72;50.03;;
17594;Laerm;8916;47.086;15.920;2023-10-31T04:59:08;48.86;47.54;50.16;;
17594;Laerm;8916;47.086;15.920;2023-10-31T05:01:37;48.86;47.68;50.00;;
17594;Laerm;8916;47.086;15.920;2023-10-31T05:04:06;48.87;47.55;50.19;;
17594;Laerm;8916;47.086;15.920;2023-10-31T05:06:41;48.86;47.81;50.03;;
17594;Laerm;8916;47.086;15.920;2023-10-31T05:09:10;48.86;47.77;49.94;;
17594;Laerm;8916;47.086;15.920;2023-10-31T05:11:40;48.87;47.83;49.92;;
17594;Laerm;8916;47.086;15.920;2023-10-31T05:14:11;48.87;47.72;49.93;;
17594;Laerm;8916;47.086;15.920;2023-10-31T05:16:41;48.89;47.67;50.17;;
17594;Laerm;8916;47.086;15.920;2023-10-31T05:19:11;48.90;47.83;50.20;;
17594;Laerm;8916;47.086;15.920;2023-10-31T05:21:41;48.91;47.90;50.04;;
17594;Laerm;8916;47.086;15.920;2023-10-31T05:24:10;48.89;47.84;50.14;;
17594;Laerm;8916;47.086;15.920;2023-10-31T05:26:40;48.90;47.67;50.00;;
17594;Laerm;8916;47.086;15.920;2023-10-31T05:29:10;48.90;47.79;50.09;;
17594;Laerm;8916;47.086;15.920;2023-10-31T05:31:39;48.88;47.59;50.07;;
17594;Laerm;8916;47.086;15.920;2023-10-31T05:34:11;48.89;47.67;50.12;;
17594;Laerm;8916;47.086;15.920;2023-10-31T05:36:41;48.89;47.70;49.92;;
17594;Laerm;8916;47.086;15.920;2023-10-31T05:39:10;48.89;47.88;50.11;;
17594;Laerm;8916;47.086;15.920;2023-10-31T05:41:39;48.88;47.81;50.13;;
17594;Laerm;8916;47.086;15.920;2023-10-31T05:44:09;48.88;47.52;49.98;;
17594;Laerm;8916;47.086;15.920;2023-10-31T05:46:38;48.88;47.77;50.03;;
17594;Laerm;8916;47.086;15.920;2023-10-31T05:49:08;48.88;47.65;50.05;;
17594;Laerm;8916;47.086;15.920;2023-10-31T05:51:37;48.89;47.86;50.08;;
17594;Laerm;8916;47.086;15.920;2023-10-31T05:54:08;48.89;47.77;50.39;;
17594;Laerm;8916;47.086;15.920;2023-10-31T05:56:40;48.90;47.77;50.10;;
17594;Laerm;8916;47.086;15.920;2023-10-31T05:59:10;48.90;47.93;50.16;;
17594;Laerm;8916;47.086;15.920;2023-10-31T06:01:39;48.90;47.79;50.00;;
17594;Laerm;8916;47.086;15.920;2023-10-31T06:04:08;48.89;47.68;50.10;;
17594;Laerm;8916;47.086;15.920;2023-10-31T06:06:38;48.91;47.65;49.92;;
17594;Laerm;8916;47.086;15.920;2023-10-31T06:09:09;48.90;47.55;50.15;;
17594;Laerm;8916;47.086;15.920;2023-10-31T06:11:40;48.89;47.68;50.04;;
17594;Laerm;8916;47.086;15.920;2023-10-31T06:14:10;48.90;47.88;50.09;;
17594;Laerm;8916;47.086;15.920;2023-10-31T06:16:42;48.90;47.63;50.20;;
17594;Laerm;8916;47.086;15.920;2023-10-31T06:19:12;48.89;47.86;50.12;;
17594;Laerm;8916;47.086;15.920;2023-10-31T06:21:41;48.91;47.86;50.05;;
17594;Laerm;8916;47.086;15.920;2023-10-31T06:24:12;48.91;47.83;50.08;;
17594;Laerm;8916;47.086;15.920;2023-10-31T06:26:41;48.91;47.81;50.07;;
17594;Laerm;8916;47.086;15.920;2023-10-31T06:29:10;48.90;47.86;49.94;;
17594;Laerm;8916;47.086;15.920;2023-10-31T06:32:00;48.91;47.83;49.95;;
17594;Laerm;8916;47.086;15.920;2023-10-31T06:34:29;48.91;47.63;49.98;;
17594;Laerm;8916;47.086;15.920;2023-10-31T06:36:58;48.90;47.61;49.98;;
17594;Laerm;8916;47.086;15.920;2023-10-31T06:39:29;48.91;47.86;50.57;;
17594;Laerm;8916;47.086;15.920;2023-10-31T06:41:58;48.91;47.77;50.06;;
17594;Laerm;8916;47.086;15.920;2023-10-31T06:44:27;48.91;47.81;50.02;;
17594;Laerm;8916;47.086;15.920;2023-10-31T06:46:56;48.90;47.84;50.03;;
17594;Laerm;8916;47.086;15.920;2023-10-31T06:49:26;48.91;47.84;50.12;;
17594;Laerm;8916;47.086;15.920;2023-10-31T06:51:55;48.90;47.79;50.13;;
17594;Laerm;8916;47.086;15.920;2023-10-31T06:54:24;48.92;47.67;50.21;;
17594;Laerm;8916;47.086;15.920;2023-10-31T06:56:54;48.91;47.86;50.06;;
17594;Laerm;8916;47.086;15.920;2023-10-31T06:59:24;48.89;47.72;49.92;;
17594;Laerm;8916;47.086;15.920;2023-10-31T07:01:53;48.90;47.74;50.21;;
17594;Laerm;8916;47.086;15.920;2023-10-31T07:04:23;48.91;47.91;50.04;;
17594;Laerm;8916;47.086;15.920;2023-10-31T07:06:52;48.90;47.84;50.07;;
17594;Laerm;8916;47.086;15.920;2023-10-31T07:09:25;48.90;47.88;50.07;;
17594;Laerm;8916;47.086;15.920;2023-10-31T07:11:56;48.90;47.68;50.12;;
17594;Laerm;8916;47.086;15.920;2023-10-31T07:14:25;48.91;47.83;50.07;;
17594;Laerm;8916;47.086;15.920;2023-10-31T07:16:53;48.90;47.79;50.24;;
17594;Laerm;8916;47.086;15.920;2023-10-31T07:19:22;48.90;47.86;49.97;;
17594;Laerm;8916;47.086;15.920;2023-10-31T07:21:51;48.91;47.57;50.09;;
17594;Laerm;8916;47.086;15.920;2023-10-31T07:24:20;48.90;47.84;50.23;;
17594;Laerm;8916;47.086;15.920;2023-10-31T07:26:49;48.91;47.88;50.20;;
17594;Laerm;8916;47.086;15.920;2023-10-31T07:29:20;48.91;47.77;50.18;;
17594;Laerm;8916;47.086;15.920;2023-10-31T07:31:49;48.89;47.79;50.04;;
17594;Laerm;8916;47.086;15.920;2023-10-31T07:34:19;48.90;47.57;50.11;;
17594;Laerm;8916;47.086;15.920;2023-10-31T07:36:48;48.90;47.84;50.21;;
17594;Laerm;8916;47.086;15.920;2023-10-31T07:39:17;48.89;47.70;50.07;;
17594;Laerm;8916;47.086;15.920;2023-10-31T07:41:46;48.91;47.68;50.10;;
17594;Laerm;8916;47.086;15.920;2023-10-31T07:44:16;48.91;47.83;50.11;;
17594;Laerm;8916;47.086;15.920;2023-10-31T07:46:47;48.90;47.79;50.05;;
17594;Laerm;8916;47.086;15.920;2023-10-31T07:49:16;48.90;47.81;49.96;;
17594;Laerm;8916;47.086;15.920;2023-10-31T07:51:45;48.89;47.76;50.05;;
17594;Laerm;8916;47.086;15.920;2023-10-31T07:54:15;48.89;47.68;50.24;;
17594;Laerm;8916;47.086;15.920;2023-10-31T07:56:45;48.90;47.86;50.19;;
17594;Laerm;8916;47.086;15.920;2023-10-31T07:59:14;48.90;47.76;50.30;;
17594;Laerm;8916;47.086;15.920;2023-10-31T08:01:43;48.90;47.55;50.17;;
17594;Laerm;8916;47.086;15.920;2023-10-31T08:04:14;48.91;47.79;50.11;;
17594;Laerm;8916;47.086;15.920;2023-10-31T08:06:44;48.90;47.88;49.98;;
17594;Laerm;8916;47.086;15.920;2023-10-31T08:09:13;48.90;47.84;50.09;;
17594;Laerm;8916;47.086;15.920;2023-10-31T08:11:44;48.89;47.76;50.08;;
17594;Laerm;8916;47.086;15.920;2023-10-31T08:14:13;48.90;47.86;49.97;;
17594;Laerm;8916;47.086;15.920;2023-10-31T08:16:43;48.89;47.72;49.89;;
17594;Laerm;8916;47.086;15.920;2023-10-31T08:19:14;48.89;47.83;49.85;;
17594;Laerm;8916;47.086;15.920;2023-10-31T08:21:43;48.89;47.79;50.07;;
17594;Laerm;8916;47.086;15.920;2023-10-31T08:24:13;48.88;47.68;50.08;;
17594;Laerm;8916;47.086;15.920;2023-10-31T08:26:42;48.88;47.84;50.12;;
17594;Laerm;8916;47.086;15.920;2023-10-31T08:29:11;48.89;47.67;50.09;;
17594;Laerm;8916;47.086;15.920;2023-10-31T08:31:41;48.88;47.57;50.06;;
17594;Laerm;8916;47.086;15.920;2023-10-31T08:34:11;48.88;47.83;50.29;;
17594;Laerm;8916;47.086;15.920;2023-10-31T08:36:41;48.88;47.91;49.96;;
17594;Laerm;8916;47.086;15.920;2023-10-31T08:39:10;48.87;47.88;50.02;;
17594;Laerm;8916;47.086;15.920;2023-10-31T08:41:51;48.88;47.86;50.21;;
17594;Laerm;8916;47.086;15.920;2023-10-31T08:44:20;48.88;47.79;49.96;;
17594;Laerm;8916;47.086;15.920;2023-10-31T08:46:49;48.87;47.82;49.95;;
17594;Laerm;8916;47.086;15.920;2023-10-31T08:49:18;48.87;47.76;50.11;;
17594;Laerm;8916;47.086;15.920;2023-10-31T08:51:49;48.87;47.80;50.13;;
17594;Laerm;8916;47.086;15.920;2023-10-31T08:54:18;48.89;47.81;50.09;;
17594;Laerm;8916;47.086;15.920;2023-10-31T08:56:48;48.89;47.76;50.08;;
17594;Laerm;8916;47.086;15.920;2023-10-31T08:59:18;48.87;47.83;50.10;;
17594;Laerm;8916;47.086;15.920;2023-10-31T09:01:47;48.88;47.83;50.17;;
17594;Laerm;8916;47.086;15.920;2023-10-31T09:04:17;48.89;47.83;49.95;;
17594;Laerm;8916;47.086;15.920;2023-10-31T09:06:48;48.88;47.77;50.11;;
17594;Laerm;8916;47.086;15.920;2023-10-31T09:09:17;48.89;47.72;49.99;;
17594;Laerm;8916;47.086;15.920;2023-10-31T09:11:48;48.88;47.86;50.13;;
17594;Laerm;8916;47.086;15.920;2023-10-31T09:14:17;48.88;47.72;50.04;;
17594;Laerm;8916;47.086;15.920;2023-10-31T09:16:47;48.88;47.63;50.24;;
17594;Laerm;8916;47.086;15.920;2023-10-31T09:19:16;48.88;47.68;50.27;;
17594;Laerm;8916;47.086;15.920;2023-10-31T09:21:45;48.88;47.50;50.01;;
17594;Laerm;8916;47.086;15.920;2023-10-31T09:24:16;48.88;47.76;49.92;;
17594;Laerm;8916;47.086;15.920;2023-10-31T09:26:45;48.89;47.72;49.96;;
17594;Laerm;8916;47.086;15.920;2023-10-31T09:29:14;48.89;47.84;49.97;;
17594;Laerm;8916;47.086;15.920;2023-10-31T09:31:55;48.90;47.70;50.07;;
17594;Laerm;8916;47.086;15.920;2023-10-31T09:34:24;48.89;47.77;50.19;;
17594;Laerm;8916;47.086;15.920;2023-10-31T09:36:53;48.89;47.77;50.04;;
17594;Laerm;8916;47.086;15.920;2023-10-31T09:39:25;48.89;47.86;50.02;;
17594;Laerm;8916;47.086;15.920;2023-10-31T09:41:55;48.89;47.70;49.96;;
17594;Laerm;8916;47.086;15.920;2023-10-31T09:44:25;48.89;47.88;50.27;;
17594;Laerm;8916;47.086;15.920;2023-10-31T09:46:55;48.89;47.81;49.94;;
17594;Laerm;8916;47.086;15.920;2023-10-31T09:49:27;48.89;47.68;50.14;;
17594;Laerm;8916;47.086;15.920;2023-10-31T09:51:56;48.88;47.86;50.14;;
17594;Laerm;8916;47.086;15.920;2023-10-31T09:54:28;48.88;47.61;50.14;;
17594;Laerm;8916;47.086;15.920;2023-10-31T09:56:58;48.88;47.84;50.07;;
17594;Laerm;8916;47.086;15.920;2023-10-31T09:59:28;48.88;47.68;50.19;;
17594;Laerm;8916;47.086;15.920;2023-10-31T10:01:57;48.87;47.76;50.12;;
17594;Laerm;8916;47.086;15.920;2023-10-31T10:04:27;48.88;47.57;49.95;;
17594;Laerm;8916;47.086;15.920;2023-10-31T10:06:59;48.89;47.88;50.13;;
17594;Laerm;8916;47.086;15.920;2023-10-31T10:09:30;48.88;47.91;49.94;;
17594;Laerm;8916;47.086;15.920;2023-10-31T10:12:01;48.86;47.70;49.96;;
17594;Laerm;8916;47.086;15.920;2023-10-31T10:14:30;48.90;47.86;50.21;;
17594;Laerm;8916;47.086;15.920;2023-10-31T10:17:01;48.92;47.84;49.96;;
17594;Laerm;8916;47.086;15.920;2023-10-31T10:19:31;48.94;47.90;50.02;;
17594;Laerm;8916;47.086;15.920;2023-10-31T10:22:00;48.94;47.91;50.12;;
17594;Laerm;8916;47.086;15.920;2023-10-31T10:24:30;48.95;47.76;50.28;;
17594;Laerm;8916;47.086;15.920;2023-10-31T10:27:00;48.95;47.44;50.00;;
17594;Laerm;8916;47.086;15.920;2023-10-31T10:29:29;48.96;47.81;50.12;;
17594;Laerm;8916;47.086;15.920;2023-10-31T10:31:58;48.97;47.86;50.24;;
17594;Laerm;8916;47.086;15.920;2023-10-31T10:34:28;49.04;48.00;51.11;;
17594;Laerm;8916;47.086;15.920;2023-10-31T10:36:58;49.00;47.86;50.93;;
17594;Laerm;8916;47.086;15.920;2023-10-31T10:39:30;48.99;47.96;50.42;;
17594;Laerm;8916;47.086;15.920;2023-10-31T10:42:09;49.00;47.74;54.79;;
17594;Laerm;8916;47.086;15.920;2023-10-31T10:44:44;49.08;47.83;53.98;;
17594;Laerm;8916;47.086;15.920;2023-10-31T10:47:17;49.05;47.93;55.19;;
17594;Laerm;8916;47.086;15.920;2023-10-31T10:49:48;48.97;47.59;54.68;;
17594;Laerm;8916;47.086;15.920;2023-10-31T10:52:23;48.94;47.57;52.42;;
17594;Laerm;8916;47.086;15.920;2023-10-31T10:55:03;49.01;47.70;57.84;;
17594;Laerm;8916;47.086;15.920;2023-10-31T10:57:38;48.91;47.74;57.42;;
17594;Laerm;8916;47.086;15.920;2023-10-31T11:00:13;48.75;47.46;50.45;;
17594;Laerm;8916;47.086;15.920;2023-10-31T11:02:44;48.72;47.57;51.24;;
17594;Laerm;8916;47.086;15.920;2023-10-31T11:05:16;48.70;47.70;50.71;;
17594;Laerm;8916;47.086;15.920;2023-10-31T11:07:46;48.70;47.00;52.45;;
17594;Laerm;8916;47.086;15.920;2023-10-31T11:10:19;47.41;46.10;48.87;;
17594;Laerm;8916;47.086;15.920;2023-10-31T11:12:50;46.69;45.36;48.03;;
17594;Laerm;8916;47.086;15.920;2023-10-31T11:15:20;46.14;44.90;47.55;;
17594;Laerm;8916;47.086;15.920;2023-10-31T11:17:50;45.73;44.69;47.36;;
17594;Laerm;8916;47.086;15.920;2023-10-31T11:20:20;45.38;44.47;46.71;;
17594;Laerm;8916;47.086;15.920;2023-10-31T11:22:55;45.10;44.07;46.33;;
17594;Laerm;8916;47.086;15.920;2023-10-31T11:25:32;44.84;43.86;45.91;;
17594;Laerm;8916;47.086;15.920;2023-10-31T11:28:16;44.60;43.34;45.89;;
17594;Laerm;8916;47.086;15.920;2023-10-31T11:30:49;44.41;43.39;45.51;;
17594;Laerm;8916;47.086;15.920;2023-10-31T11:33:21;44.23;43.09;45.51;;
17594;Laerm;8916;47.086;15.920;2023-10-31T11:35:50;44.08;43.04;45.11;;
17594;Laerm;8916;47.086;15.920;2023-10-31T11:38:32;45.02;42.93;73.55;;
17594;Laerm;8916;47.086;15.920;2023-10-31T11:41:04;43.78;42.76;44.73;;
17594;Laerm;8916;47.086;15.920;2023-10-31T11:43:52;43.67;42.64;44.80;;
17594;Laerm;8916;47.086;15.920;2023-10-31T11:46:23;43.61;42.35;44.54;;
17594;Laerm;8916;47.086;15.920;2023-10-31T11:48:55;43.52;42.59;44.69;;
17594;Laerm;8916;47.086;15.920;2023-10-31T11:51:25;43.41;42.47;44.31;;
17594;Laerm;8916;47.086;15.920;2023-10-31T11:53:56;43.30;42.22;44.51;;
17594;Laerm;8916;47.086;15.920;2023-10-31T11:56:27;43.20;42.29;44.51;;
17594;Laerm;8916;47.086;15.920;2023-10-31T11:58:58;43.10;42.03;44.23;;
17594;Laerm;8916;47.086;15.920;2023-10-31T12:01:28;43.04;41.89;43.94;;
17594;Laerm;8916;47.086;15.920;2023-10-31T12:03:57;43.00;41.96;44.03;;
17594;Laerm;8916;47.086;15.920;2023-10-31T12:06:28;42.96;41.96;44.11;;
17594;Laerm;8916;47.086;15.920;2023-10-31T12:09:00;42.91;41.96;43.99;;
17594;Laerm;8916;47.086;15.920;2023-10-31T12:11:31;42.83;41.68;44.03;;
17594;Laerm;8916;47.086;15.920;2023-10-31T12:14:02;42.78;41.68;43.72;;
17594;Laerm;8916;47.086;15.920;2023-10-31T12:16:34;42.72;41.75;43.81;;
17594;Laerm;8916;47.086;15.920;2023-10-31T12:19:05;42.69;41.75;43.68;;
17594;Laerm;8916;47.086;15.920;2023-10-31T12:21:36;42.68;41.61;43.72;;
17594;Laerm;8916;47.086;15.920;2023-10-31T12:24:08;42.61;41.53;44.07;;
17594;Laerm;8916;47.086;15.920;2023-10-31T12:26:40;42.62;41.53;43.68;;
17594;Laerm;8916;47.086;15.920;2023-10-31T12:29:12;42.56;41.46;43.49;;
17594;Laerm;8916;47.086;15.920;2023-10-31T12:31:46;42.54;41.38;43.68;;
17594;Laerm;8916;47.086;15.920;2023-10-31T12:34:17;42.51;41.46;43.81;;
17594;Laerm;8916;47.086;15.920;2023-10-31T12:36:47;42.50;41.22;43.68;;
17594;Laerm;8916;47.086;15.920;2023-10-31T12:39:20;42.52;41.26;52.90;;
17594;Laerm;8916;47.086;15.920;2023-10-31T12:41:52;42.49;41.61;43.44;;
17594;Laerm;8916;47.086;15.920;2023-10-31T12:44:24;46.74;41.53;77.93;;
17594;Laerm;8916;47.086;15.920;2023-10-31T12:46:55;49.00;47.79;50.25;;
17594;Laerm;8916;47.086;15.920;2023-10-31T12:49:25;48.99;47.98;50.12;;
17594;Laerm;8916;47.086;15.920;2023-10-31T12:51:59;48.99;47.91;50.22;;
17594;Laerm;8916;47.086;15.920;2023-10-31T12:54:30;49.00;47.95;50.18;;
17594;Laerm;8916;47.086;15.920;2023-10-31T12:57:03;48.98;47.98;50.09;;
17594;Laerm;8916;47.086;15.920;2023-10-31T12:59:34;48.98;47.93;50.50;;
17594;Laerm;8916;47.086;15.920;2023-10-31T13:02:07;48.99;47.90;49.95;;
17594;Laerm;8916;47.086;15.920;2023-10-31T13:04:38;49.00;47.91;50.24;;
17594;Laerm;8916;47.086;15.920;2023-10-31T13:07:08;48.98;47.93;50.26;;
17594;Laerm;8916;47.086;15.920;2023-10-31T13:09:38;49.00;47.93;50.23;;
17594;Laerm;8916;47.086;15.920;2023-10-31T13:12:11;48.99;47.96;50.11;;
17594;Laerm;8916;47.086;15.920;2023-10-31T13:14:40;48.99;47.67;50.29;;
17594;Laerm;8916;47.086;15.920;2023-10-31T13:17:10;49.00;47.90;50.35;;
17594;Laerm;8916;47.086;15.920;2023-10-31T13:19:39;49.01;47.81;50.20;;
17594;Laerm;8916;47.086;15.920;2023-10-31T13:22:09;48.99;47.84;50.21;;
17594;Laerm;8916;47.086;15.920;2023-10-31T13:24:38;49.01;47.80;50.07;;
17594;Laerm;8916;47.086;15.920;2023-10-31T13:27:08;49.01;47.63;50.08;;
17594;Laerm;8916;47.086;15.920;2023-10-31T13:29:44;49.01;47.88;50.13;;
17594;Laerm;8916;47.086;15.920;2023-10-31T13:32:17;49.01;47.95;50.13;;
17594;Laerm;8916;47.086;15.920;2023-10-31T13:34:46;49.01;47.93;50.25;;
17594;Laerm;8916;47.086;15.920;2023-10-31T13:37:16;49.01;47.86;50.08;;
17594;Laerm;8916;47.086;15.920;2023-10-31T13:39:45;49.01;47.83;50.26;;
17594;Laerm;8916;47.086;15.920;2023-10-31T13:42:14;49.00;47.83;50.11;;
17594;Laerm;8916;47.086;15.920;2023-10-31T13:44:45;49.00;47.68;50.44;;
17594;Laerm;8916;47.086;15.920;2023-10-31T13:47:15;49.01;47.90;50.29;;
17594;Laerm;8916;47.086;15.920;2023-10-31T13:49:45;49.01;47.74;50.30;;
17594;Laerm;8916;47.086;15.920;2023-10-31T13:52:14;49.00;47.77;50.29;;
17594;Laerm;8916;47.086;15.920;2023-10-31T13:54:44;48.99;47.84;50.03;;
17594;Laerm;8916;47.086;15.920;2023-10-31T13:57:14;48.99;47.84;50.23;;
17594;Laerm;8916;47.086;15.920;2023-10-31T13:59:44;49.00;47.88;50.13;;
17594;Laerm;8916;47.086;15.920;2023-10-31T14:02:14;49.00;47.88;50.30;;